createdAt,value
2019-04-01T00:00:57.623Z,56.62
2019-04-01T00:03:26.985Z,55.46
2019-04-01T00:05:56.748Z,55.18
2019-04-01T00:08:26.084Z,56.59
2019-04-01T00:10:55.438Z,56.09
2019-04-01T00:13:24.798Z,54.86
2019-04-01T00:15:54.173Z,54.19
2019-04-01T00:18:23.532Z,54.15
2019-04-01T00:20:53.318Z,54.16
2019-04-01T00:23:22.986Z,53.91
2019-04-01T00:25:52.329Z,53.21
2019-04-01T00:28:22.167Z,53.42
2019-04-01T00:30:51.492Z,55.35
2019-04-01T00:33:21.327Z,54.96
2019-04-01T00:35:50.967Z,53.50
2019-04-01T00:38:20.369Z,55.59
2019-04-01T00:40:49.756Z,54.63
2019-04-01T00:43:41.177Z,55.78
2019-04-01T00:46:12.280Z,55.37
2019-04-01T00:48:41.630Z,55.74
2019-04-01T00:51:10.975Z,56.24
2019-04-01T00:53:40.305Z,56.46
2019-04-01T00:56:09.645Z,55.58
2019-04-01T00:58:40.317Z,55.22
2019-04-01T01:01:09.825Z,55.14
2019-04-01T01:03:39.188Z,54.73
2019-04-01T01:06:08.556Z,54.12
2019-04-01T01:08:37.891Z,54.51
2019-04-01T01:11:07.236Z,54.89
2019-04-01T01:13:36.575Z,54.77
2019-04-01T01:16:05.914Z,54.49
2019-04-01T01:18:35.304Z,55.95
2019-04-01T01:21:04.616Z,57.13
2019-04-01T01:23:33.944Z,58.36
2019-04-01T01:26:03.297Z,59.59
2019-04-01T01:28:32.768Z,60.04
2019-04-01T01:31:02.129Z,60.93
2019-04-01T01:33:31.528Z,61.64
2019-04-01T01:36:00.926Z,62.59
2019-04-01T01:38:30.448Z,63.57
2019-04-01T01:40:59.846Z,63.52
2019-04-01T01:43:29.512Z,63.31
2019-04-01T01:45:58.831Z,63.34
2019-04-01T01:48:28.144Z,64.01
2019-04-01T01:50:57.502Z,64.79
2019-04-01T01:53:26.861Z,64.53
2019-04-01T01:55:56.198Z,65.14
2019-04-01T01:58:25.538Z,65.34
2019-04-01T02:00:57.762Z,65.26
2019-04-01T02:03:27.103Z,65.77
2019-04-01T02:05:57.676Z,65.93
2019-04-01T02:08:27.053Z,66.58
2019-04-01T02:10:56.423Z,66.52
2019-04-01T02:13:26.005Z,66.52
2019-04-01T02:15:55.356Z,67.15
2019-04-01T02:18:24.724Z,67.73
2019-04-01T02:20:54.322Z,67.76
2019-04-01T02:23:23.730Z,67.76
2019-04-01T02:25:53.052Z,67.55
2019-04-01T02:28:22.624Z,68.03
2019-04-01T02:30:51.968Z,68.27
2019-04-01T02:33:21.344Z,68.17
2019-04-01T02:35:50.700Z,69.86
2019-04-01T02:38:20.448Z,69.86
2019-04-01T02:40:49.797Z,67.95
2019-04-01T02:43:19.146Z,67.95
2019-04-01T02:45:48.479Z,65.02
2019-04-01T02:48:17.844Z,64.33
2019-04-01T02:50:47.156Z,64.95
2019-04-01T02:53:16.529Z,65.23
2019-04-01T02:55:45.889Z,63.58
2019-04-01T02:58:15.235Z,63.05
2019-04-01T03:00:44.639Z,62.77
2019-04-01T03:03:14.012Z,61.99
2019-04-01T03:05:43.419Z,62.05
2019-04-01T03:08:12.777Z,61.58
2019-04-01T03:10:42.148Z,61.42
2019-04-01T03:13:11.585Z,61.36
2019-04-01T03:15:41.143Z,59.98
2019-04-01T03:18:10.582Z,60.52
2019-04-01T03:20:40.995Z,61.83
2019-04-01T03:23:10.346Z,62.87
2019-04-01T03:25:39.663Z,64.59
2019-04-01T03:28:09.027Z,63.50
2019-04-01T03:30:38.395Z,64.65
2019-04-01T03:33:07.960Z,64.52
2019-04-01T03:35:37.274Z,65.60
2019-04-01T03:38:06.604Z,65.44
2019-04-01T03:40:36.199Z,63.65
2019-04-01T03:43:05.633Z,63.44
2019-04-01T03:45:34.992Z,62.70
2019-04-01T03:48:04.331Z,62.52
2019-04-01T03:50:33.673Z,63.43
2019-04-01T03:53:03.045Z,63.25
2019-04-01T03:55:32.452Z,62.80
2019-04-01T03:58:01.806Z,62.87
2019-04-01T04:00:31.186Z,63.29
2019-04-01T04:03:00.685Z,65.03
2019-04-01T04:05:30.085Z,64.84
2019-04-01T04:07:59.459Z,64.60
2019-04-01T04:10:28.856Z,65.02
2019-04-01T04:12:58.197Z,65.50
2019-04-01T04:15:27.589Z,64.55
2019-04-01T04:17:56.963Z,64.55
2019-04-01T04:20:26.333Z,64.80
2019-04-01T04:22:55.759Z,65.61
2019-04-01T04:25:25.105Z,63.73
2019-04-01T04:27:54.459Z,62.32
2019-04-01T04:30:23.788Z,61.94
2019-04-01T04:32:53.129Z,61.12
2019-04-01T04:35:22.565Z,59.94
2019-04-01T04:37:52.092Z,61.11
2019-04-01T04:40:21.520Z,61.65
2019-04-01T04:42:51.132Z,59.76
2019-04-01T04:45:20.523Z,59.58
2019-04-01T04:47:49.869Z,57.69
2019-04-01T04:50:19.299Z,57.47
2019-04-01T04:52:48.680Z,58.61
2019-04-01T04:55:18.053Z,59.06
2019-04-01T04:57:47.624Z,59.92
2019-04-01T05:00:17.134Z,58.44
2019-04-01T05:02:46.500Z,58.17
2019-04-01T05:05:15.975Z,57.35
2019-04-01T05:07:45.418Z,56.54
2019-04-01T05:10:14.829Z,55.07
2019-04-01T05:12:44.209Z,54.71
2019-04-01T05:15:13.652Z,55.45
2019-04-01T05:17:43.022Z,54.02
2019-04-01T05:20:12.397Z,52.64
2019-04-01T05:22:42.180Z,52.10
2019-04-01T05:25:11.586Z,51.86
2019-04-01T05:27:42.609Z,52.02
2019-04-01T05:30:12.493Z,51.58
2019-04-01T05:32:43.258Z,51.88
2019-04-01T05:35:13.111Z,51.04
2019-04-01T05:37:42.886Z,51.64
2019-04-01T05:40:12.476Z,50.80
2019-04-01T05:42:41.846Z,50.21
2019-04-01T05:45:11.230Z,50.27
2019-04-01T05:47:46.500Z,49.03
2019-04-01T05:50:16.030Z,49.26
2019-04-01T05:52:45.383Z,48.75
2019-04-01T05:55:14.768Z,48.59
2019-04-01T05:57:44.262Z,47.87
2019-04-01T06:00:21.381Z,47.18
2019-04-01T06:02:51.855Z,47.40
2019-04-01T06:05:21.389Z,47.95
2019-04-01T06:07:51.200Z,48.01
2019-04-01T06:10:20.718Z,46.96
2019-04-01T06:12:50.065Z,45.98
2019-04-01T06:15:19.426Z,46.61
2019-04-01T06:17:48.982Z,46.11
2019-04-01T06:20:18.361Z,45.84
2019-04-01T06:22:47.759Z,45.88
2019-04-01T06:25:17.937Z,46.61
2019-04-01T06:27:47.282Z,46.84
2019-04-01T06:30:17.214Z,46.27
2019-04-01T06:32:46.578Z,45.83
2019-04-01T06:35:15.935Z,44.61
2019-04-01T06:37:45.451Z,44.96
2019-04-01T06:40:15.369Z,45.17
2019-04-01T06:42:44.713Z,44.74
2019-04-01T06:45:14.534Z,44.22
2019-04-01T06:47:44.095Z,43.73
2019-04-01T06:50:13.723Z,43.54
2019-04-01T06:52:43.215Z,43.01
2019-04-01T06:55:12.659Z,42.36
2019-04-01T06:57:42.035Z,42.11
2019-04-01T07:00:11.616Z,42.44
2019-04-01T07:02:40.973Z,41.48
2019-04-01T07:05:12.574Z,41.79
2019-04-01T07:07:41.708Z,42.22
2019-04-01T07:10:11.489Z,42.06
2019-04-01T07:12:41.844Z,40.56
2019-04-01T07:15:11.420Z,40.71
2019-04-01T07:17:42.531Z,40.48
2019-04-01T07:20:12.569Z,40.93
2019-04-01T07:22:41.956Z,40.48
2019-04-01T07:25:11.873Z,39.75
2019-04-01T07:27:41.330Z,39.45
2019-04-01T07:30:11.112Z,39.86
2019-04-01T07:32:40.570Z,38.68
2019-04-01T07:35:10.315Z,38.97
2019-04-01T07:37:39.723Z,39.27
2019-04-01T07:40:09.663Z,38.21
2019-04-01T07:42:39.036Z,38.10
2019-04-01T07:45:09.391Z,37.69
2019-04-01T07:47:38.758Z,36.99
2019-04-01T07:50:12.045Z,36.20
2019-04-01T07:52:39.553Z,34.87
2019-04-01T07:55:09.173Z,35.44
2019-04-01T07:57:38.870Z,34.60
2019-04-01T08:00:08.426Z,34.97
2019-04-01T08:02:38.378Z,34.63
2019-04-01T08:05:08.622Z,33.83
2019-04-01T08:07:38.414Z,34.13
2019-04-01T08:10:08.410Z,33.79
2019-04-01T08:12:37.786Z,32.83
2019-04-01T08:15:07.897Z,32.57
2019-04-01T08:17:37.386Z,32.36
2019-04-01T08:20:07.377Z,31.72
2019-04-01T08:22:37.142Z,31.31
2019-04-01T08:25:07.122Z,31.24
2019-04-01T08:27:36.640Z,31.17
2019-04-01T08:30:06.787Z,30.84
2019-04-01T08:32:37.565Z,30.51
2019-04-01T08:35:07.313Z,30.88
2019-04-01T08:37:40.253Z,29.86
2019-04-01T08:40:08.839Z,29.73
2019-04-01T08:42:38.410Z,29.72
2019-04-01T08:45:08.171Z,29.87
2019-04-01T08:47:37.928Z,29.59
2019-04-01T08:50:08.255Z,29.04
2019-04-01T08:52:37.852Z,28.60
2019-04-01T08:55:07.609Z,28.38
2019-04-01T08:57:37.581Z,28.22
2019-04-01T09:00:07.752Z,27.73
2019-04-01T09:02:37.203Z,27.59
2019-04-01T09:05:06.776Z,28.12
2019-04-01T09:07:36.339Z,27.98
2019-04-01T09:10:06.889Z,27.34
2019-04-01T09:12:36.961Z,26.95
2019-04-01T09:15:07.642Z,27.47
2019-04-01T09:17:40.214Z,27.63
2019-04-01T09:20:13.443Z,27.83
2019-04-01T09:22:42.867Z,27.63
2019-04-01T09:25:12.343Z,27.15
2019-04-01T09:27:41.765Z,26.81
2019-04-01T09:30:11.655Z,26.16
2019-04-01T09:32:41.402Z,25.67
2019-04-01T09:35:11.008Z,26.61
2019-04-01T09:37:40.456Z,24.68
2019-04-01T09:40:10.563Z,25.64
2019-04-01T09:42:39.998Z,26.29
2019-04-01T09:45:09.764Z,25.20
2019-04-01T09:47:39.247Z,25.68
2019-04-01T09:50:09.389Z,25.63
2019-04-01T09:52:38.749Z,25.40
2019-04-01T09:55:08.233Z,25.54
2019-04-01T09:57:37.625Z,24.39
2019-04-01T10:00:09.225Z,23.20
2019-04-01T10:02:38.599Z,21.87
2019-04-01T10:05:08.458Z,22.32
2019-04-01T10:07:37.936Z,22.48
2019-04-01T10:10:07.749Z,21.85
2019-04-01T10:12:37.181Z,21.93
2019-04-01T10:15:08.454Z,21.65
2019-04-01T10:17:37.848Z,21.15
2019-04-01T10:20:08.250Z,21.17
2019-04-01T10:22:37.674Z,20.75
2019-04-01T10:25:08.693Z,20.70
2019-04-01T10:27:39.074Z,20.57
2019-04-01T10:30:09.567Z,20.65
2019-04-01T10:32:39.286Z,21.24
2019-04-01T10:35:09.458Z,21.64
2019-04-01T10:37:38.865Z,21.61
2019-04-01T10:40:08.728Z,20.99
2019-04-01T10:42:38.168Z,21.62
2019-04-01T10:45:08.872Z,21.52
2019-04-01T10:47:38.609Z,20.55
2019-04-01T10:50:08.590Z,20.39
2019-04-01T10:52:38.122Z,20.36
2019-04-01T10:55:07.796Z,20.43
2019-04-01T10:57:37.295Z,20.06
2019-04-01T11:00:09.244Z,20.60
2019-04-01T11:02:40.548Z,20.26
2019-04-01T11:05:10.323Z,20.32
2019-04-01T11:07:39.930Z,20.13
2019-04-01T11:10:11.669Z,20.38
2019-04-01T11:12:41.596Z,19.81
2019-04-01T11:15:15.333Z,19.85
2019-04-01T11:17:43.848Z,19.36
2019-04-01T11:20:14.324Z,19.93
2019-04-01T11:22:43.685Z,19.42
2019-04-01T11:25:13.283Z,20.05
2019-04-01T11:27:42.694Z,20.16
2019-04-01T11:30:13.865Z,19.92
2019-04-01T11:32:43.602Z,19.32
2019-04-01T11:35:13.205Z,19.81
2019-04-01T11:37:42.635Z,20.26
2019-04-01T11:40:12.929Z,20.23
2019-04-01T11:42:42.455Z,20.11
2019-04-01T11:45:12.901Z,19.58
2019-04-01T11:47:42.676Z,19.94
2019-04-01T11:50:12.481Z,20.34
2019-04-01T11:52:41.936Z,20.47
2019-04-01T11:55:13.184Z,20.77
2019-04-01T11:57:43.177Z,21.04
2019-04-01T12:00:17.219Z,21.08
2019-04-01T12:02:48.119Z,20.38
2019-04-01T12:05:17.972Z,19.79
2019-04-01T12:07:47.438Z,20.16
2019-04-01T12:10:16.996Z,20.28
2019-04-01T12:12:46.723Z,20.25
2019-04-01T12:15:16.257Z,20.42
2019-04-01T12:17:45.800Z,20.25
2019-04-01T12:20:15.194Z,20.38
2019-04-01T12:22:45.749Z,21.22
2019-04-01T12:25:15.841Z,20.73
2019-04-01T12:27:45.628Z,21.39
2019-04-01T12:30:16.383Z,20.90
2019-04-01T12:32:46.206Z,20.87
2019-04-01T12:35:15.538Z,20.72
2019-04-01T12:37:45.850Z,21.11
2019-04-01T12:40:15.523Z,21.37
2019-04-01T12:42:46.416Z,21.44
2019-04-01T12:45:16.006Z,20.76
2019-04-01T12:47:46.214Z,20.66
2019-04-01T12:50:15.828Z,21.25
2019-04-01T12:52:45.247Z,21.76
2019-04-01T12:55:15.527Z,21.70
2019-04-01T12:57:48.186Z,21.52
2019-04-01T13:00:18.055Z,21.78
2019-04-01T13:02:47.468Z,22.21
2019-04-01T13:05:17.676Z,22.51
2019-04-01T13:07:47.008Z,23.11
2019-04-01T13:10:16.742Z,23.16
2019-04-01T13:12:46.764Z,23.33
2019-04-01T13:15:16.457Z,23.62
2019-04-01T13:17:45.908Z,24.11
2019-04-01T13:20:15.778Z,23.95
2019-04-01T13:22:45.555Z,23.49
2019-04-01T13:25:15.429Z,23.53
2019-04-01T13:27:44.958Z,23.54
2019-04-01T13:30:14.669Z,23.97
2019-04-01T13:32:44.094Z,22.94
2019-04-01T13:35:13.522Z,23.31
2019-04-01T13:37:43.143Z,23.86
2019-04-01T13:40:13.053Z,24.06
2019-04-01T13:42:43.472Z,24.14
2019-04-01T13:45:13.136Z,24.09
2019-04-01T13:47:42.830Z,24.25
2019-04-01T13:50:16.170Z,24.27
2019-04-01T13:52:43.977Z,24.37
2019-04-01T13:55:13.911Z,24.59
2019-04-01T13:57:43.463Z,24.47
2019-04-01T14:00:14.776Z,24.68
2019-04-01T14:02:44.482Z,24.67
2019-04-01T14:05:14.047Z,25.12
2019-04-01T14:07:43.683Z,25.18
2019-04-01T14:10:13.428Z,25.61
2019-04-01T14:12:43.302Z,25.71
2019-04-01T14:15:12.943Z,25.67
2019-04-01T14:17:42.792Z,25.53
2019-04-01T14:20:12.615Z,25.64
2019-04-01T14:22:44.365Z,25.41
2019-04-01T14:25:14.018Z,25.80
2019-04-01T14:27:43.614Z,25.74
2019-04-01T14:30:13.183Z,26.38
2019-04-01T14:32:42.535Z,26.47
2019-04-01T14:35:11.929Z,26.23
2019-04-01T14:37:41.324Z,26.15
2019-04-01T14:40:11.397Z,26.37
2019-04-01T14:42:40.808Z,26.27
2019-04-01T14:45:10.571Z,26.69
2019-04-01T14:47:56.115Z,27.24
2019-04-01T14:50:11.944Z,27.49
2019-04-01T14:52:41.677Z,27.60
2019-04-01T14:55:11.284Z,27.05
2019-04-01T14:57:40.673Z,27.27
2019-04-01T15:00:12.783Z,27.23
2019-04-01T15:02:42.286Z,27.05
2019-04-01T15:05:12.311Z,27.22
2019-04-01T15:07:41.746Z,27.35
2019-04-01T15:10:11.470Z,27.39
2019-04-01T15:12:40.865Z,27.70
2019-04-01T15:15:10.603Z,27.64
2019-04-01T15:17:40.074Z,27.68
2019-04-01T15:20:09.582Z,27.63
2019-04-01T15:22:39.149Z,28.02
2019-04-01T15:25:08.705Z,28.19
2019-04-01T15:27:38.097Z,28.22
2019-04-01T15:30:07.979Z,28.11
2019-04-01T15:32:37.318Z,28.20
2019-04-01T15:35:09.389Z,28.40
2019-04-01T15:37:38.833Z,28.58
2019-04-01T15:40:09.025Z,28.80
2019-04-01T15:42:38.428Z,28.96
2019-04-01T15:45:07.989Z,28.98
2019-04-01T15:47:38.719Z,29.22
2019-04-01T15:50:09.403Z,29.68
2019-04-01T15:52:39.056Z,29.90
2019-04-01T15:55:09.068Z,30.03
2019-04-01T15:57:38.433Z,29.99
2019-04-01T16:00:09.382Z,30.15
2019-04-01T16:02:38.754Z,29.93
2019-04-01T16:05:08.859Z,30.01
2019-04-01T16:07:41.566Z,30.07
2019-04-01T16:10:09.587Z,30.33
2019-04-01T16:12:38.954Z,30.53
2019-04-01T16:15:09.275Z,30.57
2019-04-01T16:17:39.032Z,30.82
2019-04-01T16:20:09.167Z,31.32
2019-04-01T16:22:38.601Z,31.08
2019-04-01T16:25:11.249Z,31.42
2019-04-01T16:27:42.942Z,31.22
2019-04-01T16:30:12.382Z,31.55
2019-04-01T16:32:41.864Z,31.67
2019-04-01T16:35:11.539Z,31.92
2019-04-01T16:37:40.926Z,31.94
2019-04-01T16:40:10.755Z,31.66
2019-04-01T16:42:40.132Z,31.74
2019-04-01T16:45:10.342Z,31.98
2019-04-01T16:47:40.072Z,32.16
2019-04-01T16:50:11.200Z,32.54
2019-04-01T16:52:40.544Z,32.46
2019-04-01T16:55:11.974Z,32.51
2019-04-01T16:57:41.378Z,32.54
2019-04-01T17:00:14.478Z,32.56
2019-04-01T17:02:42.964Z,32.97
2019-04-01T17:05:12.591Z,32.78
2019-04-01T17:07:41.927Z,32.98
2019-04-01T17:10:16.617Z,32.97
2019-04-01T17:12:47.846Z,33.37
2019-04-01T17:15:17.265Z,32.75
2019-04-01T17:17:47.058Z,32.58
2019-04-01T17:20:17.393Z,32.73
2019-04-01T17:22:47.838Z,32.69
2019-04-01T17:25:17.245Z,32.89
2019-04-01T17:27:46.689Z,33.00
2019-04-01T17:30:16.652Z,33.04
2019-04-01T17:32:46.595Z,33.23
2019-04-01T17:35:16.206Z,33.42
2019-04-01T17:37:45.666Z,33.22
2019-04-01T17:40:17.195Z,33.37
2019-04-01T17:42:47.166Z,33.42
2019-04-01T17:45:36.002Z,33.60
2019-04-01T17:48:06.281Z,33.78
2019-04-01T17:50:35.753Z,33.96
2019-04-01T17:53:07.988Z,33.96
2019-04-01T17:55:37.431Z,33.86
2019-04-01T17:58:07.543Z,33.95
2019-04-01T18:00:41.991Z,33.67
2019-04-01T18:03:12.005Z,33.91
2019-04-01T18:05:41.470Z,33.81
2019-04-01T18:08:10.841Z,34.07
2019-04-01T18:10:40.501Z,34.21
2019-04-01T18:13:09.907Z,34.61
2019-04-01T18:15:39.437Z,35.06
2019-04-01T18:18:10.250Z,35.21
2019-04-01T18:20:40.445Z,35.33
2019-04-01T18:23:10.274Z,35.20
2019-04-01T18:25:39.631Z,35.33
2019-04-01T18:28:09.092Z,35.50
2019-04-01T18:30:38.454Z,35.43
2019-04-01T18:33:07.877Z,35.36
2019-04-01T18:35:37.254Z,35.51
2019-04-01T18:38:06.585Z,35.67
2019-04-01T18:40:38.126Z,35.67
2019-04-01T18:43:07.536Z,35.87
2019-04-01T18:45:36.928Z,35.96
2019-04-01T18:48:06.377Z,36.17
2019-04-01T18:50:35.788Z,36.06
2019-04-01T18:53:05.235Z,36.13
2019-04-01T18:55:34.878Z,36.18
2019-04-01T18:58:04.281Z,36.23
2019-04-01T19:00:33.729Z,36.31
2019-04-01T19:03:03.128Z,36.30
2019-04-01T19:05:33.115Z,36.30
2019-04-01T19:08:04.202Z,36.30
2019-04-01T19:10:33.901Z,36.18
2019-04-01T19:13:06.562Z,36.20
2019-04-01T19:15:35.727Z,36.22
2019-04-01T19:18:05.516Z,36.33
2019-04-01T19:20:35.155Z,36.32
2019-04-01T19:23:05.188Z,36.25
2019-04-01T19:25:34.605Z,36.20
2019-04-01T19:28:04.011Z,36.19
2019-04-01T19:30:33.437Z,36.33
2019-04-01T19:33:06.361Z,36.34
2019-04-01T19:35:34.113Z,36.51
2019-04-01T19:38:06.897Z,36.61
2019-04-01T19:40:34.865Z,36.50
2019-04-01T19:43:04.327Z,36.60
2019-04-01T19:45:33.855Z,36.68
2019-04-01T19:48:03.440Z,36.80
2019-04-01T19:50:33.439Z,36.91
2019-04-01T19:53:03.090Z,37.06
2019-04-01T19:55:34.128Z,37.14
2019-04-01T19:58:05.220Z,37.33
2019-04-01T20:00:34.892Z,37.38
2019-04-01T20:03:04.301Z,37.44
2019-04-01T20:05:33.654Z,37.63
2019-04-01T20:08:03.034Z,37.84
2019-04-01T20:10:32.411Z,37.99
2019-04-01T20:13:01.998Z,38.16
2019-04-01T20:15:31.412Z,38.15
2019-04-01T20:18:00.821Z,38.22
2019-04-01T20:20:31.235Z,38.23
2019-04-01T20:23:00.957Z,38.37
2019-04-01T20:25:31.694Z,38.42
2019-04-01T20:28:01.096Z,38.57
2019-04-01T20:30:30.497Z,38.62
2019-04-01T20:33:00.316Z,38.85
2019-04-01T20:35:29.887Z,38.90
2019-04-01T20:37:59.266Z,39.17
2019-04-01T20:40:28.747Z,39.14
2019-04-01T20:42:58.440Z,39.04
2019-04-01T20:45:27.840Z,39.02
2019-04-01T20:47:58.257Z,39.21
2019-04-01T20:50:29.387Z,39.24
2019-04-01T20:52:58.799Z,39.59
2019-04-01T20:55:28.161Z,39.79
2019-04-01T20:57:57.558Z,39.94
2019-04-01T21:00:26.983Z,39.95
2019-04-01T21:02:56.858Z,39.99
2019-04-01T21:05:26.348Z,40.19
2019-04-01T21:07:55.747Z,40.38
2019-04-01T21:10:25.067Z,40.38
2019-04-01T21:12:54.501Z,40.51
2019-04-01T21:15:23.948Z,40.62
2019-04-01T21:17:53.272Z,40.62
2019-04-01T21:20:22.659Z,40.70
2019-04-01T21:22:52.041Z,40.53
2019-04-01T21:25:21.477Z,40.64
2019-04-01T21:27:50.864Z,41.04
2019-04-01T21:30:20.578Z,41.13
2019-04-01T21:32:49.905Z,41.26
2019-04-01T21:35:19.253Z,41.57
2019-04-01T21:37:48.642Z,41.91
2019-04-01T21:40:18.381Z,42.11
2019-04-01T21:42:47.790Z,42.68
2019-04-01T21:45:18.165Z,43.10
2019-04-01T21:47:47.540Z,43.52
2019-04-01T21:50:16.899Z,43.65
2019-04-01T21:52:46.320Z,43.80
2019-04-01T21:55:16.230Z,44.01
2019-04-01T21:57:45.601Z,44.03
2019-04-01T22:00:19.926Z,44.35
2019-04-01T22:02:49.454Z,44.47
2019-04-01T22:05:18.907Z,44.56
2019-04-01T22:07:48.790Z,44.90
2019-04-01T22:10:18.305Z,45.13
2019-04-01T22:12:47.673Z,45.18
2019-04-01T22:15:18.773Z,45.63
2019-04-01T22:17:48.347Z,46.23
2019-04-01T22:20:17.831Z,46.76
2019-04-01T22:22:47.250Z,47.26
2019-04-01T22:25:16.689Z,47.29
2019-04-01T22:27:46.805Z,47.30
2019-04-01T22:30:17.309Z,47.72
2019-04-01T22:32:47.268Z,47.88
2019-04-01T22:35:16.638Z,48.10
2019-04-01T22:37:46.059Z,48.34
2019-04-01T22:40:15.478Z,48.74
2019-04-01T22:42:46.517Z,49.28
2019-04-01T22:45:15.925Z,49.57
2019-04-01T22:47:45.835Z,49.87
2019-04-01T22:50:15.373Z,49.98
2019-04-01T22:52:44.779Z,50.27
2019-04-01T22:55:14.197Z,49.86
2019-04-01T22:57:43.526Z,50.13
2019-04-01T23:00:13.243Z,50.38
2019-04-01T23:02:43.087Z,50.25
2019-04-01T23:05:12.800Z,50.23
2019-04-01T23:07:43.457Z,50.19
2019-04-01T23:10:13.228Z,50.25
2019-04-01T23:12:42.847Z,50.06
2019-04-01T23:15:12.581Z,50.11
2019-04-01T23:17:42.080Z,49.94
2019-04-01T23:20:12.857Z,49.86
2019-04-01T23:22:42.276Z,50.01
2019-04-01T23:25:11.767Z,50.30
2019-04-01T23:27:41.417Z,50.71
2019-04-01T23:30:11.433Z,50.83
2019-04-01T23:32:42.001Z,51.05
2019-04-01T23:35:12.515Z,51.02
2019-04-01T23:37:42.285Z,50.71
2019-04-01T23:40:11.817Z,50.52
2019-04-01T23:42:41.193Z,50.25
2019-04-01T23:45:10.627Z,50.11
2019-04-01T23:47:40.000Z,50.41
2019-04-01T23:50:09.953Z,50.65
2019-04-01T23:52:40.273Z,50.88
2019-04-01T23:55:10.456Z,51.20
2019-04-01T23:57:40.727Z,51.44
